createdAt,value
2022-10-31T07:27:05.795Z,12.70
2022-10-31T07:27:42.575Z,12.96
2022-10-31T07:28:14.921Z,12.99
2022-10-31T07:28:48.194Z,13.02
2022-10-31T07:29:20.102Z,13.05
2022-10-31T07:29:51.904Z,13.08
2022-10-31T07:30:23.723Z,13.11
2022-10-31T07:30:58.426Z,13.14
2022-10-31T07:31:30.238Z,13.17
2022-10-31T07:32:02.671Z,13.20
2022-10-31T07:32:42.318Z,13.23
2022-10-31T07:33:14.386Z,13.27
2022-10-31T07:33:46.385Z,13.29
2022-10-31T07:34:18.167Z,13.32
2022-10-31T07:34:49.964Z,13.35
2022-10-31T07:35:31.959Z,13.39
2022-10-31T07:36:03.923Z,13.42
2022-10-31T07:36:35.645Z,13.45
2022-10-31T07:37:07.619Z,13.48
2022-10-31T07:37:40.374Z,13.50
2022-10-31T07:38:14.227Z,13.53
2022-10-31T07:38:46.233Z,13.57
2022-10-31T07:39:17.944Z,13.60
2022-10-31T07:39:49.800Z,13.63
2022-10-31T07:40:23.294Z,13.65
2022-10-31T07:40:55.185Z,13.68
2022-10-31T07:41:27.052Z,13.69
2022-10-31T07:41:59.720Z,13.70
2022-10-31T07:42:39.384Z,13.73
2022-10-31T07:43:14.631Z,13.76
2022-10-31T07:43:46.806Z,13.78
2022-10-31T07:44:18.634Z,13.80
2022-10-31T07:44:52.598Z,13.82
2022-10-31T07:45:27.187Z,13.84
2022-10-31T07:45:59.244Z,13.86
2022-10-31T07:46:30.958Z,13.88
2022-10-31T07:47:02.696Z,13.90
2022-10-31T07:47:45.191Z,13.92
2022-10-31T07:48:17.008Z,13.94
2022-10-31T07:48:48.751Z,13.96
2022-10-31T07:49:20.802Z,13.97
2022-10-31T07:49:52.570Z,13.98
2022-10-31T07:50:26.923Z,13.99
2022-10-31T07:50:58.826Z,14.02
2022-10-31T07:51:30.671Z,14.01
2022-10-31T07:52:02.503Z,14.04
2022-10-31T07:52:34.477Z,14.05
2022-10-31T07:53:10.203Z,14.07
2022-10-31T07:53:41.999Z,14.10
2022-10-31T07:54:13.820Z,14.11
2022-10-31T07:54:45.713Z,14.13
2022-10-31T07:55:17.506Z,14.15
2022-10-31T07:55:49.277Z,14.16
2022-10-31T07:56:21.155Z,14.18
2022-10-31T07:56:53.141Z,14.20
2022-10-31T07:57:25.324Z,14.22
2022-10-31T07:58:05.745Z,14.24
2022-10-31T07:58:37.478Z,14.26
2022-10-31T07:59:09.660Z,14.27
2022-10-31T07:59:41.485Z,14.29
2022-10-31T08:00:13.554Z,14.30
2022-10-31T08:00:47.220Z,14.31
2022-10-31T08:01:19.011Z,14.33
2022-10-31T08:01:50.884Z,14.34
2022-10-31T08:02:23.066Z,14.35
2022-10-31T08:03:21.183Z,14.35
2022-10-31T08:03:52.956Z,14.36
2022-10-31T08:04:24.702Z,14.36
2022-10-31T08:04:58.707Z,14.37
2022-10-31T08:05:34.336Z,14.38
2022-10-31T08:06:06.448Z,14.40
2022-10-31T08:06:38.121Z,14.41
2022-10-31T08:07:09.975Z,14.43
2022-10-31T08:07:41.836Z,14.45
2022-10-31T08:08:14.926Z,14.46
2022-10-31T08:08:46.668Z,14.48
2022-10-31T08:09:18.526Z,14.50
2022-10-31T08:09:50.313Z,14.53
2022-10-31T08:10:23.056Z,14.54
2022-10-31T08:10:55.606Z,14.57
2022-10-31T08:11:27.390Z,14.58
2022-10-31T08:11:59.195Z,14.61
2022-10-31T08:12:31.057Z,14.63
2022-10-31T08:13:05.611Z,14.65
2022-10-31T08:13:37.761Z,14.66
2022-10-31T08:14:09.807Z,14.67
2022-10-31T08:14:41.840Z,14.69
2022-10-31T08:15:13.787Z,14.71
2022-10-31T08:15:50.614Z,14.73
2022-10-31T08:16:22.517Z,14.74
2022-10-31T08:16:54.466Z,14.74
2022-10-31T08:17:26.284Z,14.75
2022-10-31T08:17:58.767Z,14.76
2022-10-31T08:18:30.925Z,14.78
2022-10-31T08:19:02.890Z,14.79
2022-10-31T08:19:34.720Z,14.81
2022-10-31T08:20:07.057Z,14.83
2022-10-31T08:20:39.070Z,14.85
2022-10-31T08:21:11.143Z,14.88
2022-10-31T08:21:42.943Z,14.90
2022-10-31T08:22:14.681Z,14.91
2022-10-31T08:23:00.642Z,14.93
2022-10-31T08:23:32.595Z,14.96
2022-10-31T08:24:04.768Z,14.97
2022-10-31T08:24:36.427Z,15.00
2022-10-31T08:25:09.049Z,15.02
2022-10-31T08:25:42.376Z,15.05
2022-10-31T08:26:14.333Z,15.07
2022-10-31T08:26:46.197Z,15.09
2022-10-31T08:27:18.192Z,15.11
2022-10-31T08:27:54.270Z,15.13
2022-10-31T08:28:26.211Z,15.15
2022-10-31T08:28:58.069Z,15.17
2022-10-31T08:29:29.918Z,15.19
2022-10-31T08:30:01.718Z,15.20
2022-10-31T08:30:36.723Z,15.22
2022-10-31T08:31:09.801Z,15.23
2022-10-31T08:31:44.614Z,15.23
2022-10-31T08:32:16.379Z,15.25
2022-10-31T08:32:57.230Z,15.26
2022-10-31T08:33:28.982Z,15.27
2022-10-31T08:34:00.738Z,15.27
2022-10-31T08:34:32.494Z,15.29
2022-10-31T08:35:04.944Z,15.31
2022-10-31T08:35:36.918Z,15.34
2022-10-31T08:36:08.663Z,15.36
2022-10-31T08:36:40.614Z,15.38
2022-10-31T08:37:12.491Z,15.40
2022-10-31T08:37:44.501Z,15.41
2022-10-31T08:38:16.496Z,15.41
2022-10-31T08:38:48.742Z,15.43
2022-10-31T08:39:20.359Z,15.44
2022-10-31T08:39:52.061Z,15.46
2022-10-31T08:40:25.410Z,15.48
2022-10-31T08:40:57.304Z,15.50
2022-10-31T08:41:29.885Z,15.51
2022-10-31T08:42:02.256Z,15.52
2022-10-31T08:42:34.643Z,15.53
2022-10-31T08:43:07.709Z,15.54
2022-10-31T08:43:39.755Z,15.55
2022-10-31T08:44:11.570Z,15.56
2022-10-31T08:44:43.322Z,15.56
2022-10-31T08:45:15.376Z,15.55
2022-10-31T08:45:49.652Z,15.56
2022-10-31T08:46:21.652Z,15.56
2022-10-31T08:46:54.303Z,15.57
2022-10-31T08:47:28.596Z,15.57
2022-10-31T08:48:03.247Z,15.58
2022-10-31T08:48:35.864Z,15.59
2022-10-31T08:49:07.720Z,15.59
2022-10-31T08:49:39.482Z,15.60
2022-10-31T08:50:11.596Z,15.61
2022-10-31T08:50:45.431Z,15.62
2022-10-31T08:51:17.473Z,15.65
2022-10-31T08:51:49.532Z,15.66
2022-10-31T08:52:44.299Z,15.66
2022-10-31T08:53:19.299Z,15.68
2022-10-31T08:53:51.526Z,15.67
2022-10-31T08:54:23.352Z,15.67
2022-10-31T08:54:55.336Z,15.67
2022-10-31T08:55:27.387Z,15.68
2022-10-31T08:55:59.429Z,15.69
2022-10-31T08:56:31.321Z,15.69
2022-10-31T08:57:03.284Z,15.70
2022-10-31T08:57:35.265Z,15.72
2022-10-31T08:58:10.754Z,15.73
2022-10-31T08:58:42.874Z,15.75
2022-10-31T08:59:14.797Z,15.76
2022-10-31T08:59:46.766Z,15.77
2022-10-31T09:00:18.648Z,15.78
2022-10-31T09:00:53.417Z,15.80
2022-10-31T09:01:25.391Z,15.81
2022-10-31T09:01:57.716Z,15.82
2022-10-31T09:02:29.873Z,15.83
2022-10-31T09:03:07.451Z,15.84
2022-10-31T09:03:39.481Z,15.86
2022-10-31T09:04:11.485Z,15.87
2022-10-31T09:04:43.363Z,15.89
2022-10-31T09:05:15.751Z,15.90
2022-10-31T09:05:48.077Z,15.92
2022-10-31T09:06:20.254Z,15.94
2022-10-31T09:07:21.467Z,15.94
2022-10-31T09:07:43.909Z,15.95
2022-10-31T09:08:17.374Z,15.96
2022-10-31T09:08:49.354Z,15.97
2022-10-31T09:09:21.059Z,15.97
2022-10-31T09:09:52.950Z,15.98
2022-10-31T09:10:25.716Z,15.98
2022-10-31T09:10:58.188Z,15.98
2022-10-31T09:11:31.288Z,15.99
2022-10-31T09:12:03.487Z,16.00
2022-10-31T09:12:35.401Z,16.01
2022-10-31T09:13:11.429Z,16.03
2022-10-31T09:13:43.332Z,16.04
2022-10-31T09:14:15.212Z,16.06
2022-10-31T09:14:47.127Z,16.07
2022-10-31T09:15:19.388Z,16.09
2022-10-31T09:15:51.861Z,16.11
2022-10-31T09:16:23.739Z,16.12
2022-10-31T09:16:55.764Z,16.14
2022-10-31T09:17:27.846Z,16.16
2022-10-31T09:18:00.270Z,16.17
2022-10-31T09:18:32.939Z,16.17
2022-10-31T09:19:10.210Z,16.18
2022-10-31T09:19:43.346Z,16.19
2022-10-31T09:20:15.659Z,16.20
2022-10-31T09:20:49.071Z,16.21
2022-10-31T09:21:21.059Z,16.22
2022-10-31T09:21:54.676Z,16.23
2022-10-31T09:22:26.596Z,16.23
2022-10-31T09:23:06.868Z,16.24
2022-10-31T09:23:38.875Z,16.25
2022-10-31T09:24:10.787Z,16.25
2022-10-31T09:24:42.504Z,16.27
2022-10-31T09:25:14.551Z,16.27
2022-10-31T09:25:50.501Z,16.29
2022-10-31T09:26:22.895Z,16.30
2022-10-31T09:26:54.720Z,16.33
2022-10-31T09:27:26.733Z,16.34
2022-10-31T09:28:00.242Z,16.35
2022-10-31T09:28:33.141Z,16.36
2022-10-31T09:29:05.241Z,16.37
2022-10-31T09:29:37.155Z,16.39
2022-10-31T09:30:09.744Z,16.40
2022-10-31T09:30:42.277Z,16.42
2022-10-31T09:31:14.021Z,16.42
2022-10-31T09:31:45.851Z,16.43
2022-10-31T09:32:17.720Z,16.43
2022-10-31T09:32:54.930Z,16.44
2022-10-31T09:33:26.669Z,16.44
2022-10-31T09:33:58.580Z,16.46
2022-10-31T09:34:30.722Z,16.46
2022-10-31T09:35:02.583Z,16.47
2022-10-31T09:35:34.576Z,16.47
2022-10-31T09:36:06.532Z,16.48
2022-10-31T09:36:39.362Z,16.48
2022-10-31T09:37:11.184Z,16.48
2022-10-31T09:37:43.093Z,16.48
2022-10-31T09:38:17.587Z,16.48
2022-10-31T09:38:49.459Z,16.49
2022-10-31T09:39:21.693Z,16.49
2022-10-31T09:39:53.424Z,16.50
2022-10-31T09:40:34.851Z,16.52
2022-10-31T09:41:24.943Z,16.53
2022-10-31T09:41:57.508Z,16.55
2022-10-31T09:42:48.408Z,16.54
2022-10-31T09:43:56.578Z,16.55
2022-10-31T09:44:51.374Z,16.54
2022-10-31T09:45:32.309Z,16.53
2022-10-31T09:46:19.126Z,16.53
2022-10-31T09:47:01.525Z,16.53
2022-10-31T09:47:39.885Z,16.53
2022-10-31T09:48:42.841Z,16.53
2022-10-31T09:49:38.158Z,16.52
2022-10-31T09:50:20.282Z,16.51
2022-10-31T09:50:59.329Z,16.50
2022-10-31T09:51:39.941Z,16.51
2022-10-31T09:52:23.873Z,16.51
2022-10-31T09:53:08.790Z,16.49
2022-10-31T09:53:46.967Z,16.49
2022-10-31T09:54:52.329Z,16.49
2022-10-31T09:55:35.559Z,16.49
2022-10-31T09:56:12.463Z,16.50
2022-10-31T09:56:45.192Z,16.52
2022-10-31T09:57:24.423Z,16.53
2022-10-31T09:57:56.661Z,16.55
2022-10-31T09:58:33.053Z,16.55
2022-10-31T09:59:17.902Z,16.56
2022-10-31T09:59:50.374Z,16.56
2022-10-31T10:00:23.234Z,16.57
2022-10-31T10:00:59.882Z,16.59
2022-10-31T10:01:50.238Z,16.60
2022-10-31T10:02:27.819Z,16.63
2022-10-31T10:03:08.430Z,16.64
2022-10-31T10:03:45.912Z,16.65
2022-10-31T10:04:30.673Z,16.65
2022-10-31T10:05:06.668Z,16.66
2022-10-31T10:05:50.392Z,16.66
2022-10-31T10:06:26.263Z,16.67
2022-10-31T10:06:59.780Z,16.66
2022-10-31T10:08:09.381Z,16.67
2022-10-31T10:08:41.429Z,16.69
2022-10-31T10:09:13.359Z,16.69
2022-10-31T10:09:45.604Z,16.70
2022-10-31T10:10:48.450Z,16.72
2022-10-31T10:11:52.307Z,16.75
2022-10-31T10:12:43.735Z,16.77
2022-10-31T10:13:39.097Z,16.77
2022-10-31T10:14:46.602Z,16.79
2022-10-31T10:15:33.225Z,16.79
2022-10-31T10:16:20.147Z,16.80
2022-10-31T10:16:57.829Z,16.81
2022-10-31T10:17:54.948Z,16.82
2022-10-31T10:18:45.534Z,16.82
2022-10-31T10:19:35.720Z,16.84
2022-10-31T10:20:23.919Z,16.84
2022-10-31T10:21:20.047Z,16.84
2022-10-31T10:21:57.638Z,16.85
2022-10-31T10:22:39.062Z,16.87
2022-10-31T10:23:29.529Z,16.89
2022-10-31T10:24:38.668Z,16.90
2022-10-31T10:25:16.498Z,16.92
2022-10-31T10:25:55.532Z,16.94
2022-10-31T10:26:38.740Z,16.95
2022-10-31T10:27:10.493Z,16.97
2022-10-31T10:27:51.449Z,16.97
2022-10-31T10:28:38.803Z,16.98
2022-10-31T10:29:40.022Z,16.99
2022-10-31T10:30:20.858Z,16.99
2022-10-31T10:31:03.991Z,17.00
2022-10-31T10:31:40.711Z,16.98
2022-10-31T10:32:23.092Z,16.97
2022-10-31T10:33:00.258Z,16.97
2022-10-31T10:33:37.510Z,16.98
2022-10-31T10:34:40.622Z,16.98
2022-10-31T10:35:24.454Z,16.99
2022-10-31T10:36:00.134Z,16.99
2022-10-31T10:36:54.470Z,17.01
2022-10-31T10:37:32.002Z,17.04
2022-10-31T10:38:35.440Z,17.05
2022-10-31T10:39:16.671Z,17.07
2022-10-31T10:39:52.100Z,17.09
2022-10-31T10:40:26.390Z,17.11
2022-10-31T10:41:01.497Z,17.13
2022-10-31T10:41:34.669Z,17.15
2022-10-31T10:42:35.317Z,17.16
2022-10-31T10:43:25.173Z,17.18
2022-10-31T10:43:57.293Z,17.18
2022-10-31T10:44:47.804Z,17.17
2022-10-31T10:45:39.258Z,17.18
2022-10-31T10:46:30.069Z,17.19
2022-10-31T10:47:21.745Z,17.20
2022-10-31T10:48:03.447Z,17.21
2022-10-31T10:49:13.579Z,17.22
2022-10-31T10:49:52.953Z,17.22
2022-10-31T10:50:33.296Z,17.22
2022-10-31T10:51:25.446Z,17.23
2022-10-31T10:53:21.697Z,17.27
2022-10-31T10:54:14.309Z,17.27
2022-10-31T10:55:37.844Z,17.28
2022-10-31T10:56:19.835Z,17.27
2022-10-31T10:57:22.188Z,17.27
2022-10-31T10:57:57.204Z,17.27
2022-10-31T10:58:29.311Z,17.27
2022-10-31T10:59:02.002Z,17.27
2022-10-31T10:59:35.053Z,17.28
2022-10-31T11:00:18.830Z,17.29
2022-10-31T11:00:53.642Z,17.30
2022-10-31T11:01:26.040Z,17.30
2022-10-31T11:01:59.309Z,17.30
2022-10-31T11:02:33.313Z,17.31
2022-10-31T11:03:08.024Z,17.32
2022-10-31T11:03:40.598Z,17.33
2022-10-31T11:04:26.641Z,17.33
2022-10-31T11:05:01.283Z,17.33
2022-10-31T11:05:39.038Z,17.34
2022-10-31T11:06:22.605Z,17.34
2022-10-31T11:07:04.912Z,17.34
2022-10-31T11:07:40.454Z,17.35
2022-10-31T11:08:31.032Z,17.35
2022-10-31T11:09:10.005Z,17.35
2022-10-31T11:09:41.896Z,17.35
2022-10-31T11:10:15.919Z,17.36
2022-10-31T11:10:58.602Z,17.37
2022-10-31T11:11:31.710Z,17.39
2022-10-31T11:12:17.861Z,17.38
2022-10-31T11:13:18.075Z,17.41
2022-10-31T11:13:53.337Z,17.42
2022-10-31T11:14:25.742Z,17.41
2022-10-31T11:15:07.880Z,17.42
2022-10-31T11:16:25.701Z,17.43
2022-10-31T11:17:20.363Z,17.44
2022-10-31T11:17:55.167Z,17.45
2022-10-31T11:18:30.662Z,17.43
2022-10-31T11:19:07.826Z,17.42
2022-10-31T11:19:39.745Z,17.42
2022-10-31T11:20:17.904Z,17.41
2022-10-31T11:20:57.641Z,17.43
2022-10-31T11:21:33.786Z,17.42
2022-10-31T11:22:16.761Z,17.43
2022-10-31T11:22:49.938Z,17.43
2022-10-31T11:23:24.171Z,17.43
2022-10-31T11:24:11.045Z,17.44
2022-10-31T11:24:43.326Z,17.44
2022-10-31T11:25:25.403Z,17.43
2022-10-31T11:26:02.683Z,17.43
2022-10-31T11:26:35.778Z,17.43
2022-10-31T11:27:21.136Z,17.44
2022-10-31T11:28:10.866Z,17.47
2022-10-31T11:28:42.854Z,17.49
2022-10-31T11:29:25.269Z,17.50
2022-10-31T11:30:06.929Z,17.52
2022-10-31T11:31:15.825Z,17.53
2022-10-31T11:31:50.894Z,17.53
2022-10-31T11:32:25.620Z,17.54
2022-10-31T11:32:59.003Z,17.55
2022-10-31T11:33:47.414Z,17.55
2022-10-31T11:34:27.100Z,17.57
2022-10-31T11:35:02.820Z,17.58
2022-10-31T11:35:40.623Z,17.58
2022-10-31T11:36:23.555Z,17.59
2022-10-31T11:37:01.270Z,17.61
2022-10-31T11:37:36.187Z,17.60
2022-10-31T11:38:08.142Z,17.61
2022-10-31T11:38:44.610Z,17.62
2022-10-31T11:39:23.351Z,17.63
2022-10-31T11:39:59.407Z,17.65
2022-10-31T11:40:31.345Z,17.64
2022-10-31T11:41:18.079Z,17.64
2022-10-31T11:41:53.100Z,17.65
2022-10-31T11:42:35.487Z,17.66
2022-10-31T11:43:18.362Z,17.66
2022-10-31T11:43:54.053Z,17.67
2022-10-31T11:44:30.978Z,17.67
2022-10-31T11:45:14.586Z,17.68
2022-10-31T11:45:46.593Z,17.68
2022-10-31T11:46:27.297Z,17.69
2022-10-31T11:47:03.134Z,17.69
2022-10-31T11:47:35.134Z,17.70
2022-10-31T11:48:18.212Z,17.71
2022-10-31T11:48:52.633Z,17.72
2022-10-31T11:49:29.374Z,17.72
2022-10-31T11:50:09.499Z,17.72
2022-10-31T11:50:43.148Z,17.73
2022-10-31T11:51:31.148Z,17.73
2022-10-31T11:52:08.649Z,17.73
2022-10-31T11:52:40.937Z,17.72
2022-10-31T11:53:25.018Z,17.72
2022-10-31T11:54:02.735Z,17.71
2022-10-31T11:54:45.928Z,17.71
2022-10-31T11:55:34.636Z,17.71
2022-10-31T11:56:16.921Z,17.69
2022-10-31T11:56:48.913Z,17.69
2022-10-31T11:57:23.604Z,17.69
2022-10-31T11:57:56.284Z,17.70
2022-10-31T11:58:28.049Z,17.70
2022-10-31T11:59:06.091Z,17.71
2022-10-31T11:59:39.671Z,17.72
2022-10-31T12:00:22.779Z,17.72
2022-10-31T12:00:57.402Z,17.73
2022-10-31T12:01:32.470Z,17.73
2022-10-31T12:02:19.196Z,17.74
2022-10-31T12:02:52.222Z,17.75
2022-10-31T12:03:24.066Z,17.75
2022-10-31T12:04:07.960Z,17.75
2022-10-31T12:04:44.503Z,17.77
2022-10-31T12:05:24.107Z,17.77
2022-10-31T12:06:04.196Z,17.78
2022-10-31T12:06:38.121Z,17.78
2022-10-31T12:07:10.041Z,17.77
2022-10-31T12:07:42.672Z,17.77
2022-10-31T12:08:14.620Z,17.78
2022-10-31T12:08:47.249Z,17.78
2022-10-31T12:09:25.127Z,17.79
2022-10-31T12:09:57.082Z,17.79
2022-10-31T12:10:42.706Z,17.78
2022-10-31T12:11:30.515Z,17.80
2022-10-31T12:12:21.852Z,17.80
2022-10-31T12:13:20.335Z,17.80
2022-10-31T12:14:26.096Z,17.79
2022-10-31T12:15:25.459Z,17.79
2022-10-31T12:16:06.912Z,17.78
2022-10-31T12:17:00.693Z,17.78
2022-10-31T12:17:39.444Z,17.78
2022-10-31T12:18:29.891Z,17.79
2022-10-31T12:19:10.070Z,17.79
2022-10-31T12:19:56.142Z,17.79
2022-10-31T12:21:05.738Z,17.79
2022-10-31T12:21:45.337Z,17.78
2022-10-31T12:22:38.624Z,17.79
2022-10-31T12:23:18.758Z,17.79
2022-10-31T12:24:02.400Z,17.79
2022-10-31T12:24:59.970Z,17.78
2022-10-31T12:25:31.784Z,17.78
2022-10-31T12:26:09.190Z,17.78
2022-10-31T12:26:46.801Z,17.78
2022-10-31T12:27:31.724Z,17.78
2022-10-31T12:28:45.412Z,17.79
2022-10-31T12:29:41.241Z,17.78
2022-10-31T12:30:20.616Z,17.77
2022-10-31T12:31:29.944Z,17.78
2022-10-31T12:32:32.393Z,17.77
2022-10-31T12:33:31.587Z,17.76
2022-10-31T12:34:38.855Z,17.76
2022-10-31T12:35:48.830Z,17.76
2022-10-31T12:36:55.140Z,17.76
2022-10-31T12:38:01.072Z,17.75
2022-10-31T12:38:53.588Z,17.75
2022-10-31T12:39:56.839Z,17.76
2022-10-31T12:40:34.058Z,17.76
2022-10-31T12:41:28.139Z,17.76
2022-10-31T12:42:02.683Z,17.77
2022-10-31T12:43:05.412Z,17.77
2022-10-31T12:43:46.407Z,17.78
2022-10-31T12:44:39.683Z,17.78
2022-10-31T12:45:32.916Z,17.78
2022-10-31T12:46:26.122Z,17.77
2022-10-31T12:47:06.774Z,17.76
2022-10-31T12:47:48.007Z,17.76
2022-10-31T12:48:26.623Z,17.74
2022-10-31T12:49:19.690Z,17.74
2022-10-31T12:50:29.637Z,17.73
2022-10-31T12:51:12.454Z,17.71
2022-10-31T12:52:23.509Z,17.71
2022-10-31T12:52:55.188Z,17.71
2022-10-31T12:53:54.588Z,17.72
2022-10-31T12:54:53.453Z,17.73
2022-10-31T12:55:41.677Z,17.73
2022-10-31T12:56:30.419Z,17.75
2022-10-31T12:57:12.513Z,17.76
2022-10-31T12:57:49.580Z,17.75
2022-10-31T12:58:36.304Z,17.75
2022-10-31T12:59:36.165Z,17.76
2022-10-31T13:00:17.493Z,17.76
2022-10-31T13:00:57.425Z,17.76
2022-10-31T13:01:37.831Z,17.78
2022-10-31T13:02:30.699Z,17.78
2022-10-31T13:03:50.024Z,17.79
2022-10-31T13:04:52.244Z,17.78
2022-10-31T13:05:47.258Z,17.78
2022-10-31T13:06:31.176Z,17.78
2022-10-31T13:07:08.777Z,17.77
2022-10-31T13:07:49.825Z,17.77
2022-10-31T13:08:31.467Z,17.78
2022-10-31T13:09:08.453Z,17.77
2022-10-31T13:09:52.503Z,17.78
2022-10-31T13:10:43.940Z,17.79
2022-10-31T13:11:40.934Z,17.79
2022-10-31T13:12:18.708Z,17.79
2022-10-31T13:12:54.766Z,17.80
2022-10-31T13:13:46.792Z,17.80
2022-10-31T13:14:30.951Z,17.81
2022-10-31T13:15:18.664Z,17.82
2022-10-31T13:16:10.658Z,17.81
2022-10-31T13:16:47.800Z,17.81
2022-10-31T13:17:34.028Z,17.81
2022-10-31T13:18:13.569Z,17.81
2022-10-31T13:18:52.669Z,17.82
2022-10-31T13:19:43.635Z,17.83
2022-10-31T13:20:24.083Z,17.83
2022-10-31T13:20:58.626Z,17.83
2022-10-31T13:21:42.227Z,17.83
2022-10-31T13:22:20.074Z,17.83
2022-10-31T13:23:17.900Z,17.83
2022-10-31T13:24:01.760Z,17.83
2022-10-31T13:24:45.354Z,17.82
2022-10-31T13:25:30.827Z,17.83
2022-10-31T13:26:10.791Z,17.83
2022-10-31T13:26:50.871Z,17.83
2022-10-31T13:27:42.680Z,17.83
2022-10-31T13:28:45.729Z,17.84
2022-10-31T13:29:25.725Z,17.83
2022-10-31T13:30:19.967Z,17.83
2022-10-31T13:30:53.452Z,17.83
2022-10-31T13:31:26.078Z,17.83
2022-10-31T13:31:58.357Z,17.83
2022-10-31T13:32:41.600Z,17.84
2022-10-31T13:33:26.528Z,17.84
2022-10-31T13:34:04.464Z,17.85
2022-10-31T13:34:48.538Z,17.85
2022-10-31T13:35:55.619Z,17.86
2022-10-31T13:36:42.697Z,17.85
2022-10-31T13:37:33.291Z,17.84
2022-10-31T13:38:21.342Z,17.84
2022-10-31T13:39:15.632Z,17.83
2022-10-31T13:40:30.802Z,17.81
2022-10-31T13:41:11.597Z,17.78
2022-10-31T13:41:53.656Z,17.77
2022-10-31T13:42:37.717Z,17.75
2022-10-31T13:43:22.869Z,17.75
2022-10-31T13:44:00.611Z,17.75
2022-10-31T13:44:38.643Z,17.75
2022-10-31T13:45:24.183Z,17.75
2022-10-31T13:45:56.614Z,17.76
2022-10-31T13:46:34.225Z,17.75
2022-10-31T13:47:24.668Z,17.75
2022-10-31T13:48:16.000Z,17.76
2022-10-31T13:48:47.580Z,17.75
2022-10-31T13:49:31.532Z,17.73
2022-10-31T13:50:19.381Z,17.73
2022-10-31T13:51:01.737Z,17.72
2022-10-31T13:51:35.586Z,17.72
2022-10-31T13:52:10.319Z,17.72
2022-10-31T13:52:42.088Z,17.72
2022-10-31T13:53:14.175Z,17.71
2022-10-31T13:54:28.943Z,17.71
2022-10-31T13:55:01.006Z,17.70
2022-10-31T13:55:40.341Z,17.69
2022-10-31T13:56:22.951Z,17.70
2022-10-31T13:56:54.871Z,17.71
2022-10-31T13:57:43.452Z,17.70
2022-10-31T13:58:28.098Z,17.70
2022-10-31T13:59:20.096Z,17.70
2022-10-31T13:59:55.447Z,17.70
2022-10-31T14:00:27.517Z,17.70
2022-10-31T14:01:02.676Z,17.70
2022-10-31T14:01:35.180Z,17.69
2022-10-31T14:02:16.982Z,17.69
2022-10-31T14:02:52.934Z,17.69
2022-10-31T14:03:49.464Z,17.68
2022-10-31T14:04:38.758Z,17.68
2022-10-31T14:05:31.554Z,17.66
2022-10-31T14:06:04.154Z,17.64
2022-10-31T14:06:54.224Z,17.64
2022-10-31T14:07:28.399Z,17.62
2022-10-31T14:08:03.512Z,17.61
2022-10-31T14:08:40.433Z,17.60
2022-10-31T14:09:30.332Z,17.60
2022-10-31T14:10:06.563Z,17.60
2022-10-31T14:10:48.960Z,17.60
2022-10-31T14:11:32.865Z,17.59
2022-10-31T14:12:22.042Z,17.58
2022-10-31T14:13:04.760Z,17.59
2022-10-31T14:13:43.817Z,17.58
2022-10-31T14:14:16.214Z,17.57
2022-10-31T14:14:51.238Z,17.57
2022-10-31T14:15:28.608Z,17.56
2022-10-31T14:16:18.861Z,17.54
2022-10-31T14:16:57.405Z,17.53
2022-10-31T14:17:34.645Z,17.51
2022-10-31T14:18:18.271Z,17.50
2022-10-31T14:18:59.882Z,17.49
2022-10-31T14:19:31.723Z,17.47
2022-10-31T14:20:25.813Z,17.47
2022-10-31T14:20:58.143Z,17.46
2022-10-31T14:21:37.274Z,17.45
2022-10-31T14:22:21.983Z,17.44
2022-10-31T14:22:53.890Z,17.44
2022-10-31T14:23:34.620Z,17.42
2022-10-31T14:24:24.476Z,17.41
2022-10-31T14:24:56.263Z,17.38
2022-10-31T14:25:30.200Z,17.36
2022-10-31T14:26:28.975Z,17.36
2022-10-31T14:27:25.267Z,17.35
2022-10-31T14:27:58.807Z,17.33
2022-10-31T14:28:37.263Z,17.32
2022-10-31T14:29:15.122Z,17.31
2022-10-31T14:29:50.485Z,17.30
2022-10-31T14:30:24.953Z,17.29
2022-10-31T14:30:58.848Z,17.28
2022-10-31T14:31:38.156Z,17.27
2022-10-31T14:32:23.322Z,17.27
2022-10-31T14:33:10.046Z,17.25
2022-10-31T14:33:43.054Z,17.23
2022-10-31T14:34:29.370Z,17.22
2022-10-31T14:35:02.094Z,17.20
2022-10-31T14:36:04.189Z,17.18
2022-10-31T14:36:59.882Z,17.16
2022-10-31T14:37:31.794Z,17.14
2022-10-31T14:38:29.501Z,17.13
2022-10-31T14:39:16.374Z,17.11
2022-10-31T14:40:16.207Z,17.10
2022-10-31T14:41:23.074Z,17.05
2022-10-31T14:42:17.990Z,17.02
2022-10-31T14:42:56.354Z,16.98
2022-10-31T14:43:46.698Z,16.96
2022-10-31T14:44:33.102Z,16.95
2022-10-31T14:45:22.736Z,16.93
2022-10-31T14:46:12.798Z,16.91
2022-10-31T14:46:59.379Z,16.89
2022-10-31T14:47:53.356Z,16.86
2022-10-31T14:48:40.431Z,16.85
2022-10-31T14:49:12.299Z,16.81
2022-10-31T14:50:05.751Z,16.80
2022-10-31T14:50:50.112Z,16.77
2022-10-31T14:51:25.955Z,16.75
2022-10-31T14:51:59.621Z,16.73
2022-10-31T14:52:32.488Z,16.71
2022-10-31T14:53:10.007Z,16.70
2022-10-31T14:53:57.429Z,16.69
2022-10-31T14:54:34.652Z,16.66
2022-10-31T14:55:11.948Z,16.64
2022-10-31T14:55:48.875Z,16.62
2022-10-31T14:56:49.004Z,16.60
2022-10-31T14:57:31.476Z,16.56
2022-10-31T14:58:07.729Z,16.54
2022-10-31T14:58:46.020Z,16.52
2022-10-31T14:59:23.208Z,16.50
2022-10-31T15:00:03.883Z,16.49
2022-10-31T15:00:36.812Z,16.48
2022-10-31T15:01:28.569Z,16.47
2022-10-31T15:02:10.451Z,16.44
2022-10-31T15:03:17.407Z,16.42
2022-10-31T15:04:10.517Z,16.36
2022-10-31T15:04:45.220Z,16.33
2022-10-31T15:05:17.584Z,16.30
2022-10-31T15:05:56.678Z,16.28
2022-10-31T15:06:39.603Z,16.26
2022-10-31T15:07:24.241Z,16.23
2022-10-31T15:07:59.270Z,16.21
2022-10-31T15:08:47.543Z,16.18
2022-10-31T15:09:30.515Z,16.16
2022-10-31T15:10:20.592Z,16.13
2022-10-31T15:10:52.398Z,16.10
2022-10-31T15:11:26.720Z,16.07
2022-10-31T15:12:00.987Z,16.06
2022-10-31T15:12:35.417Z,16.05
2022-10-31T15:13:25.413Z,16.04
2022-10-31T15:14:00.695Z,16.02
2022-10-31T15:14:33.074Z,16.01
2022-10-31T15:15:18.485Z,16.01
2022-10-31T15:15:56.257Z,16.01
2022-10-31T15:16:36.418Z,16.00
2022-10-31T15:17:12.324Z,15.98
2022-10-31T15:17:49.592Z,15.97
2022-10-31T15:18:28.228Z,15.96
2022-10-31T15:19:06.399Z,15.94
2022-10-31T15:19:39.339Z,15.93
2022-10-31T15:20:21.603Z,15.92
2022-10-31T15:21:03.606Z,15.90
2022-10-31T15:21:53.016Z,15.87
2022-10-31T15:22:28.658Z,15.84
2022-10-31T15:23:00.867Z,15.82
2022-10-31T15:23:33.287Z,15.82
2022-10-31T15:24:05.501Z,15.81
2022-10-31T15:24:39.414Z,15.80
2022-10-31T15:25:20.050Z,15.79
2022-10-31T15:25:59.359Z,15.79
2022-10-31T15:26:41.070Z,15.76
2022-10-31T15:27:15.836Z,15.75
2022-10-31T15:27:52.659Z,15.74
2022-10-31T15:28:25.728Z,15.73
2022-10-31T15:29:06.584Z,15.72
2022-10-31T15:29:49.787Z,15.70
2022-10-31T15:30:30.315Z,15.68
2022-10-31T15:31:03.787Z,15.67
2022-10-31T15:31:36.279Z,15.65
2022-10-31T15:32:29.016Z,15.65
2022-10-31T15:33:01.025Z,15.62
2022-10-31T15:33:47.935Z,15.60
2022-10-31T15:34:26.906Z,15.58
2022-10-31T15:34:58.986Z,15.56
2022-10-31T15:35:31.618Z,15.56
2022-10-31T15:36:03.868Z,15.56
2022-10-31T15:36:38.419Z,15.55
2022-10-31T15:37:14.331Z,15.54
2022-10-31T15:37:46.229Z,15.53
2022-10-31T15:38:18.050Z,15.51
2022-10-31T15:38:51.039Z,15.51
2022-10-31T15:39:23.058Z,15.51
2022-10-31T15:39:54.993Z,15.50
2022-10-31T15:40:28.673Z,15.48
2022-10-31T15:41:18.374Z,15.48
2022-10-31T15:41:54.218Z,15.47
2022-10-31T15:42:34.392Z,15.45
2022-10-31T15:43:08.190Z,15.43
2022-10-31T15:43:40.679Z,15.42
2022-10-31T15:44:16.595Z,15.41
2022-10-31T15:45:19.975Z,15.41
2022-10-31T15:45:52.276Z,15.37
2022-10-31T15:46:24.293Z,15.36
2022-10-31T15:47:26.798Z,15.36
2022-10-31T15:48:12.983Z,15.34
2022-10-31T15:48:47.648Z,15.32
2022-10-31T15:49:29.861Z,15.31
2022-10-31T15:50:03.743Z,15.28
2022-10-31T15:50:41.019Z,15.27
2022-10-31T15:51:13.372Z,15.26
2022-10-31T15:51:48.234Z,15.25
2022-10-31T15:52:40.013Z,15.24
2022-10-31T15:53:25.039Z,15.21
2022-10-31T15:53:57.744Z,15.17
2022-10-31T15:54:29.804Z,15.15
2022-10-31T15:55:06.581Z,15.15
2022-10-31T15:55:48.673Z,15.13
2022-10-31T15:56:32.686Z,15.11
2022-10-31T15:57:10.507Z,15.09
2022-10-31T15:57:44.849Z,15.07
2022-10-31T15:58:18.048Z,15.05
2022-10-31T15:58:52.785Z,15.04
2022-10-31T15:59:28.112Z,15.05
2022-10-31T15:59:59.911Z,15.03
2022-10-31T16:00:35.367Z,15.02